LFSBLFSG

Guest
Details From LFSB - Bale-Mulhouse
To LFSG - Epinal Mirecourt
Flight Number -
Tags None
Created
Modified
Stats Distance 73 nm / 135 km
Max Altitude 6,500 ft / 1,981 m
Waypoints 3
Social Downloads 2
Likes 0
Share VATSIM

Download

Looking for another format? Having issues loading an existing format? Contact us
Advertisement - Login to hide

Notes

None

Route

LFSB MIRGU LFSG

ID Type Via Altitude Latitude Longitude Leg Dist Tot Dist Heading (true) Name
O LFSB APT - 0 ft / 0 m 47.59581˚ 7.52481˚ - 0 nm - Bale-Mulhouse
MIRGU FIX - 6,500 ft / 1,981 m 48.01917˚ 6.67889˚ 42 nm 42 nm 307° / 306° -
O LFSG APT - 0 ft / 0 m 48.32519˚ 6.06996˚ 30 nm 73 nm 307° / 307° Epinal Mirecourt

Altitude Profile

Advertisement - Login to hide

LFSB

Details ICAO LFSB (MLH)
Name Bale-Mulhouse
Region France
Timezone Europe/Paris (UTC+1.0)
Stats Elevation 885 ft / 270 m (AMSL)
Location 47.595810° 7.524806°
Runways 2
Magnetic Variation 2.084° E

METAR

LFSB 120300Z AUTO 26009KT 230V290 9999 FEW033 BKN042 OVC120 04/M02 Q1002 TEMPO 26020G35KT

Decode

TAF

TAF TAF LFSB 112300Z 1200/1224 26015G25KT 9999 BKN030 TEMPO 1200/1204 26020G35KT -RA BECMG 1204/1206 26012KT BECMG 1216/1218 VRB03KT

Decode

Departure Runways

ID Width Length Bearing (true) Bearing (mag) Surface Threshold Offset Overrun Length
08 193 ft / 59 m 5,956 ft / 1,816 m 76.91° 74.83° Concrete 0 ft / 0 m 0 ft / 0 m
15 197 ft / 60 m 12,802 ft / 3,902 m 154.86° 152.78° Concrete 0 ft / 0 m 0 ft / 0 m
26 193 ft / 59 m 5,956 ft / 1,816 m 256.93° 254.85° Concrete 722 ft / 220 m 0 ft / 0 m
33 197 ft / 60 m 12,802 ft / 3,902 m 334.88° 332.80° Concrete 3,675 ft / 1,120 m 0 ft / 0 m

LFSG

Details ICAO LFSG (EPL)
Name Epinal Mirecourt
Region France
Timezone Europe/Paris (UTC+1.0)
Stats Elevation 1,084 ft / 330 m (AMSL)
Location 48.325189° 6.069958°
Runways 1
Magnetic Variation 1.684° E

METAR

LFSG 120300Z AUTO 26013KT 9999 BKN032 BKN220 01/M01 Q1001

Decode

TAF

Not found

Destination Runways

ID Width Length Bearing (true) Bearing (mag) Surface Threshold Offset Overrun Length
09 147 ft / 45 m 8,835 ft / 2,693 m 85.05° 83.37° Concrete 0 ft / 0 m 1,662 ft / 507 m
27 147 ft / 45 m 8,835 ft / 2,693 m 265.08° 263.40° Concrete 846 ft / 258 m 0 ft / 0 m

Approach Navaids

Runway Type Ident Frequency Range Bearing (true) Bearing (mag) Slope Elevation
27 Localiser MI 110.90 MHz 18 nm / 33 km 265.05° 263.36° - 1,084 ft / 330 m (AMSL)
27 Glidescope MI 110.90 MHz 10 nm / 19 km 265.06° 263.38° 3.00° 1,084 ft / 330 m (AMSL)

Popular Alternatives